createdAt,value
2019-04-30T00:01:33.972Z,5.08
2019-04-30T00:04:09.172Z,6.62
2019-04-30T00:06:39.766Z,8.25
2019-04-30T00:09:17.485Z,5.05
2019-04-30T00:11:45.934Z,10.48
2019-04-30T00:14:17.072Z,6.87
2019-04-30T00:16:47.897Z,6.62
2019-04-30T00:19:19.834Z,12.07
2019-04-30T00:21:56.946Z,9.28
2019-04-30T00:24:22.433Z,9.58
2019-04-30T00:26:52.853Z,9.40
2019-04-30T00:29:26.799Z,9.38
2019-04-30T00:31:59.267Z,9.73
2019-04-30T00:34:30.895Z,7.60
2019-04-30T00:37:00.446Z,8.30
2019-04-30T00:39:31.368Z,17.05
2019-04-30T00:42:01.740Z,10.60
2019-04-30T00:44:32.371Z,8.73
2019-04-30T00:47:04.963Z,10.30
2019-04-30T00:49:35.127Z,6.67
2019-04-30T00:52:05.452Z,5.25
2019-04-30T00:54:35.816Z,8.28
2019-04-30T00:57:07.660Z,5.70
2019-04-30T00:59:39.772Z,7.90
2019-04-30T01:02:32.098Z,6.47
2019-04-30T01:05:08.600Z,6.87
2019-04-30T01:07:39.619Z,10.13
2019-04-30T01:10:11.398Z,8.80
2019-04-30T01:12:47.332Z,6.25
2019-04-30T01:15:14.730Z,8.13
2019-04-30T01:17:51.001Z,13.55
2019-04-30T01:20:19.371Z,7.00
2019-04-30T01:22:49.922Z,5.03
2019-04-30T01:25:21.492Z,6.10
2019-04-30T01:27:51.860Z,7.65
2019-04-30T01:30:42.753Z,6.55
2019-04-30T01:33:13.541Z,5.95
2019-04-30T01:35:44.653Z,5.87
2019-04-30T01:38:15.002Z,7.58
2019-04-30T01:40:47.499Z,5.00
2019-04-30T01:43:23.121Z,10.40
2019-04-30T01:45:49.885Z,8.60
2019-04-30T01:48:20.229Z,7.87
2019-04-30T01:50:50.572Z,5.85
2019-04-30T01:53:21.347Z,6.75
2019-04-30T01:56:09.663Z,7.12
2019-04-30T01:58:42.054Z,4.78
2019-04-30T02:01:23.430Z,12.10
2019-04-30T02:03:54.314Z,5.22
2019-04-30T02:06:24.710Z,9.88
2019-04-30T02:08:55.417Z,7.55
2019-04-30T02:11:26.125Z,10.28
2019-04-30T02:13:58.990Z,6.42
2019-04-30T02:16:29.875Z,12.93
2019-04-30T02:19:00.574Z,4.78
2019-04-30T02:21:33.365Z,10.28
2019-04-30T02:24:03.386Z,5.03
2019-04-30T02:26:33.776Z,4.97
2019-04-30T02:29:04.351Z,5.62
2019-04-30T02:31:35.258Z,5.00
2019-04-30T02:34:10.014Z,11.35
2019-04-30T02:36:50.449Z,7.62
2019-04-30T02:39:20.955Z,9.20
2019-04-30T02:41:51.559Z,7.05
2019-04-30T02:44:21.965Z,4.37
2019-04-30T02:46:52.318Z,6.12
2019-04-30T02:49:22.787Z,7.17
2019-04-30T02:51:53.103Z,4.60
2019-04-30T02:54:24.987Z,8.75
2019-04-30T02:56:59.442Z,8.35
2019-04-30T02:59:59.947Z,12.30
2019-04-30T03:02:31.430Z,7.30
2019-04-30T03:05:02.077Z,8.55
2019-04-30T03:07:32.631Z,5.85
2019-04-30T03:10:03.351Z,4.10
2019-04-30T03:12:34.148Z,4.83
2019-04-30T03:15:05.714Z,10.53
2019-04-30T03:17:40.773Z,4.90
2019-04-30T03:20:32.627Z,4.70
2019-04-30T03:23:02.063Z,4.10
2019-04-30T03:25:29.893Z,5.55
2019-04-30T03:28:00.876Z,14.03
2019-04-30T03:30:32.220Z,5.05
2019-04-30T03:33:03.452Z,4.90
2019-04-30T03:35:34.307Z,4.97
2019-04-30T03:38:05.295Z,4.45
2019-04-30T03:40:36.037Z,5.00
2019-04-30T03:43:06.740Z,8.10
2019-04-30T03:45:40.017Z,4.55
2019-04-30T03:48:10.344Z,8.20
2019-04-30T03:50:50.320Z,10.68
2019-04-30T03:53:13.387Z,7.53
2019-04-30T03:55:44.478Z,5.65
2019-04-30T03:58:14.829Z,5.42
2019-04-30T04:01:03.422Z,9.50
2019-04-30T04:03:35.785Z,6.65
2019-04-30T04:06:21.477Z,5.08
2019-04-30T04:09:10.358Z,6.53
2019-04-30T04:11:43.430Z,8.53
2019-04-30T04:14:13.860Z,5.62
2019-04-30T04:16:44.224Z,6.50
2019-04-30T04:19:14.951Z,14.33
2019-04-30T04:21:45.784Z,4.33
2019-04-30T04:24:16.536Z,4.37
2019-04-30T04:26:49.892Z,4.92
2019-04-30T04:29:19.854Z,7.42
2019-04-30T04:31:50.513Z,8.75
2019-04-30T04:34:20.895Z,4.40
2019-04-30T04:36:51.798Z,8.98
2019-04-30T04:39:22.513Z,9.68
2019-04-30T04:41:53.347Z,4.65
2019-04-30T04:44:23.800Z,5.05
2019-04-30T04:46:54.271Z,6.35
2019-04-30T04:49:25.130Z,14.90
2019-04-30T04:51:55.942Z,5.50
2019-04-30T04:54:26.328Z,5.40
2019-04-30T04:57:11.157Z,4.87
2019-04-30T04:59:29.785Z,10.72
2019-04-30T05:02:01.967Z,5.42
2019-04-30T05:04:33.008Z,4.83
2019-04-30T05:07:03.673Z,5.00
2019-04-30T05:09:34.379Z,4.83
2019-04-30T05:12:04.707Z,10.13
2019-04-30T05:14:35.094Z,6.85
2019-04-30T05:17:05.461Z,15.70
2019-04-30T05:19:36.191Z,11.22
2019-04-30T05:22:06.834Z,4.83
2019-04-30T05:24:38.461Z,9.28
2019-04-30T05:27:09.950Z,4.33
2019-04-30T05:29:40.667Z,4.85
2019-04-30T05:32:11.040Z,6.33
2019-04-30T05:34:41.404Z,4.65
2019-04-30T05:37:11.822Z,6.47
2019-04-30T05:39:42.232Z,6.28
2019-04-30T05:42:12.708Z,8.25
2019-04-30T05:44:43.086Z,6.00
2019-04-30T05:47:14.201Z,5.67
2019-04-30T05:49:44.662Z,5.28
2019-04-30T05:52:16.188Z,6.35
2019-04-30T05:54:48.588Z,4.50
2019-04-30T05:57:19.745Z,6.85
2019-04-30T05:59:50.216Z,3.67
2019-04-30T06:02:20.641Z,8.55
2019-04-30T06:04:50.963Z,8.25
2019-04-30T06:07:40.783Z,5.42
2019-04-30T06:10:13.148Z,4.97
2019-04-30T06:12:54.262Z,9.33
2019-04-30T06:15:26.240Z,4.97
2019-04-30T06:18:01.135Z,9.43
2019-04-30T06:20:28.921Z,4.75
2019-04-30T06:22:59.810Z,6.00
2019-04-30T06:25:37.261Z,3.85
2019-04-30T06:28:03.126Z,4.85
2019-04-30T06:30:33.871Z,4.47
2019-04-30T06:33:04.382Z,4.35
2019-04-30T06:35:34.736Z,6.83
2019-04-30T06:38:05.062Z,9.43
2019-04-30T06:40:35.474Z,9.13
2019-04-30T06:43:05.831Z,28.02
2019-04-30T06:45:36.433Z,19.17
2019-04-30T06:48:09.017Z,4.95
2019-04-30T06:50:39.525Z,6.20
2019-04-30T06:53:09.891Z,13.93
2019-04-30T06:55:40.239Z,6.58
2019-04-30T06:58:15.116Z,7.90
2019-04-30T07:00:43.349Z,2.92
2019-04-30T07:03:14.080Z,3.52
2019-04-30T07:05:44.555Z,4.90
2019-04-30T07:08:39.614Z,8.35
2019-04-30T07:11:22.151Z,7.58
2019-04-30T07:13:53.015Z,20.37
2019-04-30T07:16:23.394Z,14.65
2019-04-30T07:18:54.504Z,3.40
2019-04-30T07:21:25.143Z,7.58
2019-04-30T07:23:55.505Z,6.97
2019-04-30T07:26:25.873Z,6.67
2019-04-30T07:28:56.539Z,3.40
2019-04-30T07:31:29.401Z,38.60
2019-04-30T07:33:59.631Z,10.48
2019-04-30T07:36:45.283Z,3.67
2019-04-30T07:39:02.683Z,4.73
2019-04-30T07:41:33.015Z,2.70
2019-04-30T07:44:03.467Z,23.20
2019-04-30T07:46:35.086Z,14.03
2019-04-30T07:49:06.726Z,3.10
2019-04-30T07:51:40.828Z,6.77
2019-04-30T07:54:10.253Z,2.73
2019-04-30T07:56:41.886Z,10.23
2019-04-30T07:59:12.828Z,4.20
2019-04-30T08:02:00.762Z,2.43
2019-04-30T08:04:26.296Z,3.47
2019-04-30T08:06:59.724Z,3.53
2019-04-30T08:09:39.158Z,4.20
2019-04-30T08:12:02.868Z,3.90
2019-04-30T08:14:33.788Z,4.27
2019-04-30T08:17:04.508Z,4.90
2019-04-30T08:19:34.956Z,2.97
2019-04-30T08:22:05.322Z,16.13
2019-04-30T08:24:35.758Z,10.63
2019-04-30T08:27:07.049Z,2.40
2019-04-30T08:29:39.502Z,4.70
2019-04-30T08:32:10.303Z,2.97
2019-04-30T08:34:40.629Z,4.23
2019-04-30T08:37:17.266Z,3.83
2019-04-30T08:39:43.146Z,2.87
2019-04-30T08:42:13.804Z,7.53
2019-04-30T08:44:44.168Z,6.17
2019-04-30T08:47:14.503Z,3.37
2019-04-30T08:49:45.231Z,4.57
2019-04-30T08:52:15.902Z,6.90
2019-04-30T08:54:46.697Z,2.90
2019-04-30T08:57:19.092Z,3.40
2019-04-30T08:59:49.543Z,2.83
2019-04-30T09:02:20.324Z,3.47
2019-04-30T09:04:52.367Z,4.67
2019-04-30T09:07:22.808Z,2.40
2019-04-30T09:09:53.420Z,8.27
2019-04-30T09:12:23.900Z,2.93
2019-04-30T09:14:54.250Z,3.47
2019-04-30T09:17:25.183Z,2.50
2019-04-30T09:19:55.834Z,6.93
2019-04-30T09:22:26.258Z,2.67
2019-04-30T09:24:56.721Z,4.67
2019-04-30T09:27:27.140Z,4.13
2019-04-30T09:29:58.824Z,4.07
2019-04-30T09:32:29.436Z,2.90
2019-04-30T09:34:59.901Z,3.87
2019-04-30T09:37:30.719Z,3.03
2019-04-30T09:40:01.510Z,2.23
2019-04-30T09:42:31.850Z,2.40
2019-04-30T09:45:02.570Z,4.37
2019-04-30T09:47:32.915Z,8.57
2019-04-30T09:50:04.092Z,4.83
2019-04-30T09:52:36.008Z,5.60
2019-04-30T09:55:07.042Z,3.13
2019-04-30T09:57:39.023Z,3.30
2019-04-30T10:00:10.453Z,4.93
2019-04-30T10:02:41.254Z,3.07
2019-04-30T10:05:13.164Z,2.50
2019-04-30T10:07:44.056Z,3.00
2019-04-30T10:10:16.015Z,3.73
2019-04-30T10:12:46.393Z,2.97
2019-04-30T10:15:33.554Z,4.63
2019-04-30T10:18:04.820Z,10.03
2019-04-30T10:20:42.100Z,4.50
2019-04-30T10:23:12.528Z,6.80
2019-04-30T10:25:43.444Z,12.63
2019-04-30T10:28:14.516Z,4.83
2019-04-30T10:30:45.677Z,3.50
2019-04-30T10:33:16.918Z,5.23
2019-04-30T10:35:49.434Z,3.73
2019-04-30T10:38:20.239Z,6.20
2019-04-30T10:40:51.034Z,6.67
2019-04-30T10:43:22.014Z,7.30
2019-04-30T10:45:52.359Z,2.60
2019-04-30T10:48:22.755Z,3.80
2019-04-30T10:50:53.420Z,3.67
2019-04-30T10:53:24.153Z,9.03
2019-04-30T10:55:54.485Z,4.00
2019-04-30T10:58:24.918Z,2.73
2019-04-30T11:00:56.035Z,3.47
2019-04-30T11:03:26.445Z,7.60
2019-04-30T11:05:58.576Z,22.27
2019-04-30T11:08:29.303Z,3.43
2019-04-30T11:10:59.793Z,4.50
2019-04-30T11:13:30.504Z,8.87
2019-04-30T11:16:12.136Z,2.97
2019-04-30T11:18:33.301Z,2.83
2019-04-30T11:21:03.816Z,5.70
2019-04-30T11:23:34.433Z,4.63
2019-04-30T11:26:05.605Z,2.47
2019-04-30T11:28:36.806Z,3.30
2019-04-30T11:31:27.247Z,4.60
2019-04-30T11:34:02.114Z,3.03
2019-04-30T11:36:32.850Z,7.27
2019-04-30T11:39:05.205Z,2.87
2019-04-30T11:41:35.608Z,8.23
2019-04-30T11:44:05.992Z,3.00
2019-04-30T11:47:01.699Z,3.27
2019-04-30T11:49:32.757Z,3.33
2019-04-30T11:52:03.310Z,2.70
2019-04-30T11:54:33.671Z,7.70
2019-04-30T11:57:04.470Z,4.30
2019-04-30T11:59:35.186Z,5.53
2019-04-30T12:02:07.533Z,4.43
2019-04-30T12:04:39.324Z,4.53
2019-04-30T12:07:17.675Z,3.23
2019-04-30T12:09:55.684Z,2.80
2019-04-30T12:12:26.235Z,3.30
2019-04-30T12:14:56.887Z,6.53
2019-04-30T12:17:27.222Z,7.30
2019-04-30T12:19:58.681Z,4.70
2019-04-30T12:22:29.597Z,3.63
2019-04-30T12:25:03.292Z,2.90
2019-04-30T12:27:32.981Z,3.10
2019-04-30T12:30:05.256Z,6.63
2019-04-30T12:32:35.953Z,9.67
2019-04-30T12:35:07.406Z,4.60
2019-04-30T12:37:39.108Z,2.67
2019-04-30T12:40:25.509Z,5.10
2019-04-30T12:42:42.848Z,3.00
2019-04-30T12:45:13.749Z,2.93
2019-04-30T12:47:45.838Z,7.10
2019-04-30T12:50:19.526Z,8.67
2019-04-30T12:52:51.607Z,6.83
2019-04-30T12:55:32.629Z,2.77
2019-04-30T12:58:04.125Z,6.60
2019-04-30T13:00:34.940Z,3.93
2019-04-30T13:03:05.374Z,3.77
2019-04-30T13:05:36.141Z,4.23
2019-04-30T13:08:09.101Z,4.50
2019-04-30T13:10:40.747Z,3.20
2019-04-30T13:13:11.931Z,2.50
2019-04-30T13:15:42.581Z,7.77
2019-04-30T13:18:12.932Z,3.30
2019-04-30T13:20:43.361Z,5.80
2019-04-30T13:23:33.561Z,6.83
2019-04-30T13:26:03.923Z,5.23
2019-04-30T13:28:51.675Z,5.23
2019-04-30T13:31:22.700Z,6.73
2019-04-30T13:33:58.226Z,3.83
2019-04-30T13:36:27.556Z,2.73
2019-04-30T13:39:02.289Z,3.67
2019-04-30T13:41:34.741Z,2.43
2019-04-30T13:44:05.270Z,3.37
2019-04-30T13:46:35.900Z,7.23
2019-04-30T13:49:06.278Z,6.63
2019-04-30T13:51:36.717Z,2.80
2019-04-30T13:54:07.081Z,2.40
2019-04-30T13:56:39.550Z,3.27
2019-04-30T13:59:09.889Z,3.57
2019-04-30T14:01:40.934Z,2.57
2019-04-30T14:04:28.525Z,2.97
2019-04-30T14:07:00.540Z,4.57
2019-04-30T14:09:33.235Z,4.77
2019-04-30T14:12:03.965Z,1.97
2019-04-30T14:14:34.736Z,2.20
2019-04-30T14:17:05.148Z,2.53
2019-04-30T14:19:35.857Z,3.53
2019-04-30T14:22:08.960Z,2.60
2019-04-30T14:24:39.512Z,3.20
2019-04-30T14:27:09.851Z,2.53
2019-04-30T14:29:40.278Z,2.80
2019-04-30T14:32:10.621Z,2.50
2019-04-30T14:34:40.973Z,2.40
2019-04-30T14:37:11.799Z,3.27
2019-04-30T14:39:42.443Z,3.33
2019-04-30T14:42:13.871Z,5.57
2019-04-30T14:44:46.209Z,3.50
2019-04-30T14:47:20.865Z,2.87
2019-04-30T14:50:02.002Z,2.47
2019-04-30T14:52:24.904Z,5.30
2019-04-30T14:55:08.931Z,3.97
2019-04-30T14:57:40.927Z,7.00
2019-04-30T15:00:15.683Z,2.40
2019-04-30T15:02:50.036Z,1.97
2019-04-30T15:05:20.764Z,4.50
2019-04-30T15:07:51.167Z,2.10
2019-04-30T15:10:21.545Z,4.87
2019-04-30T15:12:51.874Z,2.77
2019-04-30T15:15:22.456Z,2.87
2019-04-30T15:17:53.121Z,2.53
2019-04-30T15:20:23.468Z,5.23
2019-04-30T15:23:19.017Z,2.27
2019-04-30T15:25:44.309Z,2.97
2019-04-30T15:28:14.707Z,3.17
2019-04-30T15:30:45.039Z,5.10
2019-04-30T15:33:35.404Z,2.77
2019-04-30T15:36:06.986Z,3.03
2019-04-30T15:38:55.503Z,3.43
2019-04-30T15:41:25.878Z,5.80
2019-04-30T15:43:56.696Z,2.83
2019-04-30T15:46:27.041Z,2.10
2019-04-30T15:48:57.930Z,2.70
2019-04-30T15:51:28.560Z,3.63
2019-04-30T15:53:59.440Z,2.60
2019-04-30T15:56:37.414Z,5.30
2019-04-30T15:59:19.750Z,2.40
2019-04-30T16:01:52.145Z,6.90
2019-04-30T16:04:38.376Z,2.50
2019-04-30T16:07:09.147Z,2.50
2019-04-30T16:09:58.583Z,2.10
2019-04-30T16:12:30.676Z,2.33
2019-04-30T16:15:01.422Z,2.67
2019-04-30T16:17:32.155Z,3.90
2019-04-30T16:20:02.497Z,2.10
2019-04-30T16:22:33.568Z,3.00
2019-04-30T16:25:05.587Z,2.40
2019-04-30T16:27:36.316Z,2.33
2019-04-30T16:30:06.831Z,2.00
2019-04-30T16:32:37.509Z,3.70
2019-04-30T16:35:08.909Z,2.30
2019-04-30T16:37:39.916Z,1.40
2019-04-30T16:40:10.652Z,1.50
2019-04-30T16:42:41.498Z,4.43
2019-04-30T16:45:12.269Z,2.10
2019-04-30T16:47:42.740Z,2.10
2019-04-30T16:50:13.475Z,2.17
2019-04-30T16:52:44.220Z,2.30
2019-04-30T16:55:15.097Z,2.17
2019-04-30T16:57:45.828Z,1.57
2019-04-30T17:00:17.391Z,2.40
2019-04-30T17:02:49.774Z,1.90
2019-04-30T17:05:37.121Z,1.60
2019-04-30T17:08:09.615Z,5.17
2019-04-30T17:10:42.723Z,1.90
2019-04-30T17:13:23.727Z,1.77
2019-04-30T17:16:05.535Z,1.50
2019-04-30T17:18:35.993Z,1.90
2019-04-30T17:21:06.655Z,2.40
2019-04-30T17:23:37.029Z,3.20
2019-04-30T17:26:08.146Z,2.30
2019-04-30T17:28:38.953Z,2.30
2019-04-30T17:31:09.822Z,4.37
2019-04-30T17:33:40.146Z,2.13
2019-04-30T17:36:11.102Z,2.47
2019-04-30T17:38:42.003Z,1.63
2019-04-30T17:41:12.769Z,4.83
2019-04-30T17:43:43.882Z,3.00
2019-04-30T17:46:14.263Z,3.70
2019-04-30T17:48:45.174Z,5.13
2019-04-30T17:51:15.644Z,2.00
2019-04-30T17:53:53.659Z,1.43
2019-04-30T17:56:24.012Z,2.10
2019-04-30T17:58:54.612Z,3.23
2019-04-30T18:01:24.991Z,3.70
2019-04-30T18:03:55.428Z,1.80
2019-04-30T18:06:25.795Z,2.73
2019-04-30T18:08:56.573Z,2.57
2019-04-30T18:11:29.573Z,2.00
2019-04-30T18:14:00.231Z,3.37
2019-04-30T18:16:30.967Z,3.40
2019-04-30T18:19:03.752Z,3.80
2019-04-30T18:21:36.121Z,3.73
2019-04-30T18:24:24.471Z,7.70
2019-04-30T18:27:02.729Z,3.70
2019-04-30T18:29:33.375Z,7.00
2019-04-30T18:32:04.158Z,6.00
2019-04-30T18:34:34.608Z,5.03
2019-04-30T18:37:04.944Z,3.77
2019-04-30T18:39:35.687Z,6.03
2019-04-30T18:42:06.344Z,6.57
2019-04-30T18:44:36.995Z,7.50
2019-04-30T18:47:09.028Z,7.60
2019-04-30T18:49:39.563Z,7.07
2019-04-30T18:52:09.910Z,9.80
2019-04-30T18:54:40.656Z,6.50
2019-04-30T18:57:11.627Z,6.03
2019-04-30T18:59:41.970Z,5.67
2019-04-30T19:02:14.295Z,4.83
2019-04-30T19:04:45.257Z,5.43
2019-04-30T19:07:17.531Z,7.07
2019-04-30T19:09:50.700Z,14.40
2019-04-30T19:12:32.351Z,33.33
2019-04-30T19:15:10.647Z,63.10
2019-04-30T19:17:58.339Z,93.53
2019-04-30T19:20:49.698Z,141.20
2019-04-30T19:23:20.178Z,200.95
2019-04-30T19:25:50.573Z,221.03
2019-04-30T19:28:20.968Z,203.90
2019-04-30T19:30:58.036Z,173.40
2019-04-30T19:33:30.762Z,149.87
2019-04-30T19:35:59.737Z,69.47
2019-04-30T19:38:30.189Z,96.87
2019-04-30T19:41:00.612Z,95.60
2019-04-30T19:43:31.261Z,96.93
2019-04-30T19:46:02.354Z,98.47
2019-04-30T19:48:32.784Z,88.97
2019-04-30T19:51:03.560Z,43.03
2019-04-30T19:53:34.200Z,84.73
2019-04-30T19:56:04.956Z,61.43
2019-04-30T19:59:05.909Z,44.30
2019-04-30T20:01:36.511Z,40.00
2019-04-30T20:04:06.886Z,34.10
2019-04-30T20:06:38.631Z,23.70
2019-04-30T20:09:09.455Z,20.73
2019-04-30T20:11:42.643Z,23.90
2019-04-30T20:14:12.511Z,26.20
2019-04-30T20:16:43.286Z,42.07
2019-04-30T20:19:13.967Z,29.63
2019-04-30T20:21:50.346Z,29.83
2019-04-30T20:24:19.353Z,11.63
2019-04-30T20:26:51.617Z,12.97
2019-04-30T20:29:22.186Z,9.87
2019-04-30T20:31:52.564Z,7.90
2019-04-30T20:34:22.982Z,8.13
2019-04-30T20:36:53.351Z,12.73
2019-04-30T20:39:39.349Z,12.90
2019-04-30T20:42:09.866Z,6.60
2019-04-30T20:44:40.264Z,9.83
2019-04-30T20:47:10.628Z,9.97
2019-04-30T20:49:41.019Z,7.13
2019-04-30T20:52:11.919Z,10.47
2019-04-30T20:54:42.570Z,10.03
2019-04-30T20:57:12.944Z,9.60
2019-04-30T20:59:43.978Z,7.07
2019-04-30T21:02:15.014Z,9.40
2019-04-30T21:04:45.630Z,11.77
2019-04-30T21:07:16.375Z,9.83
2019-04-30T21:09:46.771Z,10.33
2019-04-30T21:12:18.809Z,12.37
2019-04-30T21:14:49.845Z,10.70
2019-04-30T21:17:20.276Z,11.73
2019-04-30T21:19:50.889Z,9.70
2019-04-30T21:22:22.905Z,12.90
2019-04-30T21:24:53.403Z,9.97
2019-04-30T21:27:24.014Z,12.40
2019-04-30T21:29:54.482Z,8.60
2019-04-30T21:32:29.535Z,8.73
2019-04-30T21:35:01.862Z,8.00
2019-04-30T21:37:32.566Z,10.37
2019-04-30T21:40:05.820Z,8.47
2019-04-30T21:42:36.192Z,10.73
2019-04-30T21:45:06.982Z,7.47
2019-04-30T21:47:37.328Z,9.87
2019-04-30T21:50:10.070Z,7.83
2019-04-30T21:52:40.395Z,12.37
2019-04-30T21:55:10.719Z,7.67
2019-04-30T21:57:41.447Z,13.20
2019-04-30T22:00:32.107Z,12.60
2019-04-30T22:03:03.983Z,11.50
2019-04-30T22:05:34.726Z,15.13
2019-04-30T22:08:05.840Z,11.70
2019-04-30T22:10:36.239Z,10.73
2019-04-30T22:13:08.823Z,14.20
2019-04-30T22:15:39.473Z,17.87
2019-04-30T22:18:10.300Z,21.13
2019-04-30T22:20:40.680Z,17.43
2019-04-30T22:23:11.448Z,18.87
2019-04-30T22:25:41.909Z,19.67
2019-04-30T22:28:12.262Z,15.57
2019-04-30T22:30:42.985Z,24.93
2019-04-30T22:33:13.471Z,15.40
2019-04-30T22:35:48.197Z,19.67
2019-04-30T22:38:29.251Z,17.20
2019-04-30T22:40:59.705Z,19.37
2019-04-30T22:43:30.456Z,16.83
2019-04-30T22:46:02.490Z,15.97
2019-04-30T22:48:33.268Z,19.20
2019-04-30T22:51:03.672Z,20.57
2019-04-30T22:53:34.020Z,19.50
2019-04-30T22:56:04.769Z,13.30
2019-04-30T22:58:35.525Z,14.77
2019-04-30T23:01:23.839Z,17.10
2019-04-30T23:03:55.872Z,18.20
2019-04-30T23:06:26.550Z,22.83
2019-04-30T23:08:57.199Z,22.70
2019-04-30T23:11:27.902Z,21.70
2019-04-30T23:13:58.316Z,20.57
2019-04-30T23:16:28.663Z,20.00
2019-04-30T23:18:59.305Z,23.03
2019-04-30T23:21:30.131Z,19.40
2019-04-30T23:24:01.237Z,24.53
2019-04-30T23:26:31.912Z,19.20
2019-04-30T23:29:02.291Z,16.57
2019-04-30T23:31:32.954Z,24.17
2019-04-30T23:34:03.409Z,21.90
2019-04-30T23:36:33.780Z,20.90
2019-04-30T23:39:05.784Z,20.50
2019-04-30T23:41:36.958Z,23.03
2019-04-30T23:44:07.693Z,18.03
2019-04-30T23:46:38.429Z,19.10
2019-04-30T23:49:09.202Z,19.10
2019-04-30T23:51:39.980Z,17.83
2019-04-30T23:54:10.839Z,17.90
2019-04-30T23:56:41.502Z,11.17
2019-04-30T23:59:12.180Z,18.37
